Time;durP1;ratioP1;P1;durP2;ratioP2;P2;SDS_P1;SDS_P2;PMS_P1;PMS_P2;Temp;Humidity;BMP_temperature;BMP_pressure;BME280_temperature;BME280_humidity;BME280_pressure;Samples;Min_cycle;Max_cycle;Signal;HPM_P1;HPM_P2
2023/07/15 00:01:08;;;;;;;6.40;3.60;;;19.70;99.90;;;;;;5087518;28;20044;-77
2023/07/15 00:03:34;;;;;;;7.20;3.83;;;19.70;99.90;;;;;;5084729;28;20036;-77
2023/07/15 00:06:01;;;;;;;6.25;3.75;;;19.70;99.90;;;;;;5078039;28;20514;-77
2023/07/15 00:08:27;;;;;;;4.85;3.50;;;19.80;99.90;;;;;;5078379;28;20119;-76
2023/07/15 00:10:53;;;;;;;4.20;3.45;;;19.70;99.90;;;;;;5077686;28;20119;-76
2023/07/15 00:13:19;;;;;;;5.22;3.60;;;19.80;99.90;;;;;;5078450;28;20432;-77
2023/07/15 00:15:47;;;;;;;7.38;4.07;;;19.70;99.90;;;;;;5082131;28;20116;-77
2023/07/15 00:18:17;;;;;;;4.82;3.65;;;19.70;99.90;;;;;;5078229;28;20047;-76
2023/07/15 00:20:44;;;;;;;7.82;3.92;;;19.70;99.90;;;;;;5078290;28;20565;-76
2023/07/15 00:23:20;;;;;;;7.20;3.70;;;19.70;99.90;;;;;;5078878;28;20434;-76
2023/07/15 00:25:47;;;;;;;3.97;3.58;;;19.80;99.90;;;;;;5078721;28;20043;-77
2023/07/15 00:28:13;;;;;;;7.55;4.07;;;19.80;99.90;;;;;;5084662;28;20043;-76
2023/07/15 00:30:39;;;;;;;5.00;3.90;;;19.80;99.90;;;;;;5080574;28;20081;-77
2023/07/15 00:33:08;;;;;;;5.55;3.83;;;19.80;99.90;;;;;;5084556;28;20035;-78
2023/07/15 00:35:34;;;;;;;5.20;3.55;;;19.80;99.90;;;;;;5082208;28;20044;-77
2023/07/15 00:37:59;;;;;;;7.50;3.78;;;19.80;99.90;;;;;;5079593;28;20037;-77
2023/07/15 00:40:27;;;;;;;6.75;4.30;;;19.80;99.90;;;;;;5074767;28;20097;-77
2023/07/15 00:43:30;;;;;;;5.40;3.70;;;19.80;99.90;;;;;;5072672;28;20411;-78
2023/07/15 00:46:18;;;;;;;7.32;4.07;;;19.80;99.90;;;;;;5066168;28;20105;-77
2023/07/15 00:49:03;;;;;;;5.85;3.80;;;19.80;99.90;;;;;;5081848;28;20415;-77
2023/07/15 00:51:32;;;;;;;5.53;3.40;;;19.80;99.90;;;;;;5078183;28;20408;-75
2023/07/15 00:53:59;;;;;;;4.88;3.47;;;19.80;99.90;;;;;;5081505;28;20487;-77
2023/07/15 00:56:26;;;;;;;5.05;3.65;;;19.80;99.90;;;;;;5087816;28;20036;-77
2023/07/15 00:58:52;;;;;;;4.90;3.60;;;19.80;99.90;;;;;;5086132;28;20064;-78
2023/07/15 01:01:18;;;;;;;5.00;3.63;;;19.80;99.90;;;;;;5079960;28;20078;-78
2023/07/15 01:03:45;;;;;;;5.22;3.53;;;19.80;99.90;;;;;;5087004;28;20042;-77
2023/07/15 01:06:11;;;;;;;4.93;3.65;;;19.80;99.90;;;;;;5089063;28;20044;-77
2023/07/15 01:08:37;;;;;;;5.70;3.38;;;19.80;99.90;;;;;;5058015;28;20039;-79
2023/07/15 01:11:03;;;;;;;5.47;3.53;;;19.80;99.90;;;;;;5064088;28;20131;-78
2023/07/15 01:13:28;;;;;;;5.47;3.35;;;19.80;99.90;;;;;;5089149;28;20131;-78
2023/07/15 01:15:54;;;;;;;4.55;3.15;;;19.80;99.90;;;;;;5089565;28;20036;-77
2023/07/15 01:18:20;;;;;;;8.75;3.70;;;19.80;99.90;;;;;;5086604;28;20122;-78
2023/07/15 01:20:46;;;;;;;5.65;3.25;;;19.80;99.90;;;;;;5089458;28;20503;-77
2023/07/15 01:23:11;;;;;;;5.18;3.50;;;19.80;99.90;;;;;;5078628;28;20035;-78
2023/07/15 01:25:37;;;;;;;5.15;3.08;;;19.80;99.90;;;;;;5086803;28;20085;-78
2023/07/15 01:28:02;;;;;;;5.57;3.33;;;19.80;99.90;;;;;;5083937;28;20426;-78
2023/07/15 01:30:29;;;;;;;4.03;2.88;;;19.80;99.90;;;;;;5088310;28;20040;-77
2023/07/15 01:32:55;;;;;;;5.07;3.17;;;19.80;99.90;;;;;;5083015;28;20036;-78
2023/07/15 01:35:20;;;;;;;5.57;3.00;;;19.80;99.90;;;;;;5088672;28;20036;-78
2023/07/15 01:37:46;;;;;;;6.32;3.25;;;19.90;99.90;;;;;;5088489;28;20133;-77
2023/07/15 01:40:13;;;;;;;5.25;3.10;;;19.90;99.90;;;;;;5086364;28;20039;-78
2023/07/15 01:42:40;;;;;;;4.80;2.80;;;19.90;99.90;;;;;;5067030;28;20032;-78
2023/07/15 01:45:08;;;;;;;4.35;2.90;;;19.90;99.90;;;;;;5087781;28;20039;-77
2023/07/15 01:47:34;;;;;;;5.63;2.83;;;19.90;99.90;;;;;;5089047;28;20035;-78
2023/07/15 01:50:00;;;;;;;4.95;3.03;;;19.90;99.90;;;;;;5089192;28;20418;-77
2023/07/15 01:52:25;;;;;;;4.43;3.00;;;19.90;99.90;;;;;;5080192;28;20559;-78
2023/07/15 01:54:51;;;;;;;4.63;2.90;;;19.90;99.90;;;;;;5076418;28;20068;-78
2023/07/15 01:57:16;;;;;;;4.80;2.88;;;19.90;99.90;;;;;;5074544;28;20037;-77
2023/07/15 01:59:42;;;;;;;6.00;3.05;;;20.00;99.90;;;;;;5081665;28;20040;-77
2023/07/15 02:02:08;;;;;;;5.78;3.35;;;20.00;99.90;;;;;;5085842;28;20072;-78
2023/07/15 02:04:33;;;;;;;4.00;2.58;;;20.00;99.90;;;;;;5087568;28;20504;-78
2023/07/15 02:06:59;;;;;;;4.65;2.90;;;20.10;99.90;;;;;;5082548;28;20123;-78
2023/07/15 02:09:24;;;;;;;5.32;3.00;;;20.10;99.90;;;;;;5088027;28;20123;-78
2023/07/15 02:11:50;;;;;;;5.25;2.72;;;20.10;99.90;;;;;;5067340;28;20071;-78
2023/07/15 02:14:16;;;;;;;5.43;2.80;;;20.20;99.90;;;;;;5087912;28;20039;-77
2023/07/15 02:16:41;;;;;;;6.63;2.65;;;20.10;99.90;;;;;;5086339;28;20029;-77
2023/07/15 02:19:07;;;;;;;4.88;2.63;;;20.10;99.90;;;;;;5063454;28;20565;-78
2023/07/15 02:21:32;;;;;;;8.48;2.80;;;20.10;99.90;;;;;;5084867;28;20048;-78
2023/07/15 02:23:59;;;;;;;4.85;2.65;;;20.10;99.90;;;;;;5077447;28;20092;-77
2023/07/15 02:26:25;;;;;;;3.88;2.38;;;20.10;99.90;;;;;;5088492;28;20044;-77
2023/07/15 02:28:50;;;;;;;4.50;2.80;;;20.10;99.90;;;;;;5086356;28;20369;-78
2023/07/15 02:31:16;;;;;;;4.40;2.85;;;20.00;99.90;;;;;;5085410;28;20056;-78
2023/07/15 02:33:42;;;;;;;6.85;2.83;;;20.00;99.90;;;;;;5089790;28;20039;-78
2023/07/15 02:36:07;;;;;;;7.13;2.67;;;20.00;99.90;;;;;;5087463;28;20040;-77
2023/07/15 02:38:32;;;;;;;8.20;2.72;;;20.00;99.90;;;;;;5085716;28;20499;-78
2023/07/15 02:40:58;;;;;;;5.15;2.60;;;20.10;99.90;;;;;;5079654;28;20039;-78
2023/07/15 02:43:24;;;;;;;4.57;2.63;;;20.10;99.90;;;;;;5090867;28;20507;-77
2023/07/15 02:45:53;;;;;;;6.93;2.58;;;20.10;99.90;;;;;;5069934;28;20407;-77
2023/07/15 02:48:21;;;;;;;10.60;2.85;;;20.20;99.90;;;;;;5088966;28;20415;-78
2023/07/15 02:51:05;;;;;;;5.40;2.55;;;20.10;99.90;;;;;;5085099;28;20047;-78
2023/07/15 02:53:31;;;;;;;4.63;2.47;;;20.10;99.90;;;;;;5085856;28;20529;-78
2023/07/15 02:55:56;;;;;;;7.20;2.80;;;20.10;99.90;;;;;;5081522;28;20040;-77
2023/07/15 02:58:22;;;;;;;2.47;2.13;;;20.10;99.90;;;;;;5089877;28;20050;-78
2023/07/15 03:00:50;;;;;;;4.40;2.55;;;20.10;99.90;;;;;;5083732;28;20119;-78
2023/07/15 03:03:16;;;;;;;5.13;2.72;;;20.10;99.90;;;;;;5090789;28;20498;-77
2023/07/15 03:05:49;;;;;;;3.97;2.58;;;20.10;99.90;;;;;;5092170;28;20035;-77
2023/07/15 03:08:14;;;;;;;3.78;2.30;;;20.10;99.90;;;;;;5091328;28;20050;-77
2023/07/15 03:10:44;;;;;;;4.38;2.40;;;20.00;99.90;;;;;;5068369;28;20028;-76
2023/07/15 03:13:10;;;;;;;6.45;2.58;;;20.00;99.90;;;;;;5090955;28;20039;-77
2023/07/15 03:15:36;;;;;;;5.30;2.58;;;20.10;99.90;;;;;;5089529;28;20122;-77
2023/07/15 03:18:02;;;;;;;5.25;2.60;;;20.10;99.90;;;;;;5090438;28;20031;-78
2023/07/15 03:20:29;;;;;;;3.88;2.45;;;20.10;99.90;;;;;;5090790;28;20044;-78
2023/07/15 03:22:55;;;;;;;4.93;2.83;;;20.10;99.90;;;;;;5073006;28;20032;-78
2023/07/15 03:25:21;;;;;;;6.78;2.50;;;20.10;99.90;;;;;;5090484;28;20620;-78
2023/07/15 03:27:48;;;;;;;4.07;2.50;;;20.20;99.90;;;;;;5090853;28;20089;-78
2023/07/15 03:30:14;;;;;;;5.97;2.70;;;20.00;99.90;;;;;;5089596;28;20080;-78
2023/07/15 03:32:40;;;;;;;4.28;2.70;;;19.90;99.90;;;;;;5085936;28;20051;-78
2023/07/15 03:35:10;;;;;;;5.18;2.45;;;19.90;99.90;;;;;;5091336;28;20403;-77
2023/07/15 03:37:37;;;;;;;5.13;2.70;;;19.80;99.90;;;;;;5089522;28;20069;-78
2023/07/15 03:40:10;;;;;;;5.07;2.80;;;19.70;99.90;;;;;;5084461;28;20036;-78
2023/07/15 03:42:37;;;;;;;5.32;2.65;;;19.70;99.90;;;;;;5088584;28;20039;-78
2023/07/15 03:45:04;;;;;;;5.47;2.60;;;19.70;99.90;;;;;;5086315;28;20403;-78
2023/07/15 03:47:29;;;;;;;4.47;2.90;;;19.60;99.90;;;;;;5068457;28;20051;-80
2023/07/15 03:49:55;;;;;;;4.50;2.80;;;19.60;99.90;;;;;;5087977;28;20431;-78
2023/07/15 03:52:20;;;;;;;4.57;2.80;;;19.60;99.90;;;;;;5060982;28;20040;-78
2023/07/15 03:54:47;;;;;;;5.55;2.63;;;19.60;99.90;;;;;;5091188;28;20077;-79
2023/07/15 03:57:12;;;;;;;5.68;2.47;;;19.60;99.90;;;;;;5065001;28;20460;-78
2023/07/15 03:59:38;;;;;;;4.22;2.28;;;19.50;99.90;;;;;;5092214;28;20072;-78
2023/07/15 04:02:04;;;;;;;4.72;2.47;;;19.50;99.90;;;;;;5087070;28;20035;-79
2023/07/15 04:04:30;;;;;;;4.35;2.72;;;19.50;99.90;;;;;;5090920;28;20438;-78
2023/07/15 04:06:55;;;;;;;4.40;2.35;;;19.50;99.90;;;;;;5089398;28;20101;-77
2023/07/15 04:09:21;;;;;;;4.13;2.60;;;19.40;99.90;;;;;;5081352;28;20039;-78
2023/07/15 04:11:47;;;;;;;3.25;2.58;;;19.40;99.90;;;;;;5086242;28;20040;-78
2023/07/15 04:14:13;;;;;;;6.85;2.60;;;19.40;99.90;;;;;;5067302;28;20063;-78
2023/07/15 04:16:39;;;;;;;3.45;2.20;;;19.40;99.90;;;;;;5091080;28;20118;-79
2023/07/15 04:19:05;;;;;;;6.45;2.65;;;19.40;99.90;;;;;;5082722;28;20453;-79
2023/07/15 04:21:30;;;;;;;3.30;2.40;;;19.40;99.90;;;;;;5091149;28;20032;-79
2023/07/15 04:23:56;;;;;;;3.92;2.30;;;19.40;99.90;;;;;;5089521;28;20128;-78
2023/07/15 04:26:22;;;;;;;5.00;2.33;;;19.40;99.90;;;;;;5090643;28;20496;-78
2023/07/15 04:28:49;;;;;;;6.90;2.45;;;19.40;99.90;;;;;;5082400;28;20028;-78
2023/07/15 04:31:15;;;;;;;3.70;2.35;;;19.40;99.90;;;;;;5086975;28;20110;-79
2023/07/15 04:33:41;;;;;;;5.07;3.03;;;19.50;99.90;;;;;;5089106;28;20502;-79
2023/07/15 04:36:07;;;;;;;7.05;2.60;;;19.50;99.90;;;;;;5089810;28;20039;-78
2023/07/15 04:38:32;;;;;;;4.80;2.70;;;19.50;99.90;;;;;;5087704;28;20044;-78
2023/07/15 04:40:58;;;;;;;4.85;2.50;;;19.60;99.90;;;;;;5089146;28;20036;-78
2023/07/15 04:43:23;;;;;;;7.05;2.97;;;19.60;99.90;;;;;;5090177;28;20407;-78
2023/07/15 04:45:50;;;;;;;6.95;2.50;;;19.60;99.90;;;;;;5089212;28;20040;-78
2023/07/15 04:48:15;;;;;;;5.00;2.22;;;19.70;99.90;;;;;;5090236;28;20532;-78
2023/07/15 04:50:41;;;;;;;4.38;2.50;;;19.70;99.90;;;;;;5087858;28;20044;-79
2023/07/15 04:53:06;;;;;;;5.03;2.70;;;19.90;99.90;;;;;;5089830;28;20109;-78
2023/07/15 04:55:33;;;;;;;6.18;2.60;;;19.90;99.90;;;;;;5071088;28;20032;-78
2023/07/15 04:57:59;;;;;;;3.90;2.53;;;20.10;99.90;;;;;;5078582;28;20039;-78
2023/07/15 05:00:27;;;;;;;6.15;2.38;;;20.10;99.90;;;;;;5083861;28;20288;-78
2023/07/15 05:02:52;;;;;;;5.55;2.83;;;20.10;99.90;;;;;;5088369;28;20503;-79
2023/07/15 05:05:18;;;;;;;3.75;2.58;;;20.00;99.90;;;;;;5085337;28;20078;-78
2023/07/15 05:07:44;;;;;;;5.57;2.63;;;20.00;99.90;;;;;;5087908;28;20028;-78
2023/07/15 05:10:10;;;;;;;5.40;2.60;;;20.10;99.90;;;;;;5083738;28;20052;-79
2023/07/15 05:12:36;;;;;;;4.00;2.60;;;20.10;99.90;;;;;;5087428;28;20032;-78
2023/07/15 05:15:03;;;;;;;3.35;2.40;;;20.10;99.90;;;;;;5089600;28;20115;-79
2023/07/15 05:17:28;;;;;;;5.13;2.65;;;20.10;99.90;;;;;;5086579;28;20035;-78
2023/07/15 05:19:54;;;;;;;6.43;2.78;;;20.00;99.90;;;;;;5089411;28;20522;-78
2023/07/15 05:22:20;;;;;;;5.90;3.05;;;20.10;99.90;;;;;;5082115;28;20546;-79
2023/07/15 05:24:45;;;;;;;4.88;2.45;;;20.20;99.90;;;;;;5087571;28;20119;-79
2023/07/15 05:27:11;;;;;;;3.40;2.47;;;20.30;99.90;;;;;;5086823;28;20165;-78
2023/07/15 05:29:37;;;;;;;5.13;2.45;;;20.40;99.90;;;;;;5085743;28;20043;-77
2023/07/15 05:32:03;;;;;;;5.60;2.50;;;20.50;99.90;;;;;;5085920;28;20042;-78
2023/07/15 05:34:29;;;;;;;5.03;2.88;;;20.60;99.90;;;;;;5085852;28;20403;-78
2023/07/15 05:36:54;;;;;;;5.80;2.63;;;20.70;99.90;;;;;;5083263;28;20043;-78
2023/07/15 05:39:20;;;;;;;4.60;2.63;;;20.70;99.90;;;;;;5085505;28;20039;-77
2023/07/15 05:41:46;;;;;;;5.38;2.55;;;20.80;99.90;;;;;;5088446;28;20547;-78
2023/07/15 05:44:11;;;;;;;7.32;2.67;;;20.90;99.90;;;;;;5080325;28;20127;-78
2023/07/15 05:46:37;;;;;;;5.45;3.05;;;21.00;99.90;;;;;;5079654;28;20085;-78
2023/07/15 05:49:04;;;;;;;4.90;2.72;;;21.00;99.90;;;;;;5081403;28;20043;-78
2023/07/15 05:51:31;;;;;;;6.47;2.60;;;21.10;99.90;;;;;;5088837;28;20050;-78
2023/07/15 05:53:56;;;;;;;4.60;2.70;;;21.20;99.90;;;;;;5071439;28;20089;-78
2023/07/15 05:56:22;;;;;;;9.10;2.70;;;21.20;99.90;;;;;;5078056;28;20048;-78
2023/07/15 05:58:48;;;;;;;5.03;2.63;;;21.30;99.90;;;;;;5077721;28;20040;-77
2023/07/15 06:01:13;;;;;;;6.47;2.63;;;21.40;99.90;;;;;;5077336;28;20032;-78
2023/07/15 06:03:39;;;;;;;4.28;2.53;;;21.50;99.90;;;;;;5073256;28;20081;-78
2023/07/15 06:06:05;;;;;;;4.43;2.65;;;21.60;99.90;;;;;;5085743;28;20397;-77
2023/07/15 06:08:33;;;;;;;5.85;2.80;;;21.70;99.90;;;;;;5066305;28;20033;-78
2023/07/15 06:10:59;;;;;;;4.85;2.40;;;21.80;99.90;;;;;;5080525;28;20089;-77
2023/07/15 06:13:24;;;;;;;3.35;2.47;;;21.90;99.90;;;;;;5076606;28;20040;-77
2023/07/15 06:15:50;;;;;;;4.97;2.60;;;22.00;99.90;;;;;;5075961;28;20466;-77
2023/07/15 06:18:16;;;;;;;4.57;2.33;;;22.10;99.90;;;;;;5076807;28;20043;-78
2023/07/15 06:20:42;;;;;;;4.57;2.65;;;22.20;99.90;;;;;;5078355;28;20555;-77
2023/07/15 06:23:09;;;;;;;3.80;2.40;;;22.30;99.90;;;;;;5076181;28;20032;-78
2023/07/15 06:25:36;;;;;;;6.30;2.65;;;22.20;99.90;;;;;;5084235;28;20646;-78
2023/07/15 06:28:02;;;;;;;5.05;2.60;;;22.30;99.90;;;;;;5089905;28;20427;-77
2023/07/15 06:30:28;;;;;;;7.35;2.70;;;22.20;99.90;;;;;;5078026;28;20069;-78
2023/07/15 06:32:54;;;;;;;4.43;2.40;;;22.20;99.90;;;;;;5081270;28;20040;-77
2023/07/15 06:35:20;;;;;;;6.20;2.50;;;22.20;99.90;;;;;;5080764;28;20040;-77
2023/07/15 06:37:47;;;;;;;3.63;2.40;;;22.30;99.90;;;;;;5086395;28;20044;-78
2023/07/15 06:40:15;;;;;;;6.50;2.70;;;22.40;99.90;;;;;;5075759;28;20109;-77
2023/07/15 06:42:40;;;;;;;4.75;2.35;;;22.30;99.90;;;;;;5085214;28;20077;-77
2023/07/15 06:45:06;;;;;;;7.18;2.33;;;22.40;99.90;;;;;;5091376;28;20040;-77
2023/07/15 06:47:32;;;;;;;5.28;2.42;;;22.40;99.90;;;;;;5091715;28;20047;-77
2023/07/15 06:49:57;;;;;;;5.07;2.60;;;22.40;99.90;;;;;;5091294;28;20118;-77
2023/07/15 06:52:23;;;;;;;5.57;2.60;;;22.40;99.90;;;;;;5079845;28;20048;-78
2023/07/15 06:54:51;;;;;;;3.67;2.50;;;22.40;99.90;;;;;;5070912;28;20340;-77
2023/07/15 06:57:17;;;;;;;7.25;2.55;;;22.50;99.90;;;;;;5081659;28;20123;-77
2023/07/15 06:59:42;;;;;;;5.25;2.40;;;22.70;99.90;;;;;;5092911;28;20127;-78
2023/07/15 07:02:08;;;;;;;4.20;2.40;;;22.80;99.90;;;;;;5091206;28;20345;-76
2023/07/15 07:04:33;;;;;;;4.00;2.20;;;23.00;99.90;;;;;;5091074;28;20042;-78
2023/07/15 07:06:59;;;;;;;5.07;2.50;;;23.20;99.90;;;;;;5086315;28;20054;-76
2023/07/15 07:09:24;;;;;;;9.00;2.50;;;23.40;99.90;;;;;;5093467;28;20036;-77
2023/07/15 07:11:50;;;;;;;4.28;2.28;;;23.50;99.90;;;;;;5090806;28;20047;-77
2023/07/15 07:14:16;;;;;;;5.57;2.45;;;23.60;99.90;;;;;;5084540;28;20491;-75
2023/07/15 07:16:41;;;;;;;4.55;2.00;;;23.60;99.90;;;;;;5086440;28;20036;-77
2023/07/15 07:19:07;;;;;;;5.65;2.05;;;23.60;99.90;;;;;;5090716;28;20407;-76
2023/07/15 07:21:33;;;;;;;2.92;1.90;;;23.80;99.90;;;;;;5082518;28;20117;-77
2023/07/15 07:23:59;;;;;;;3.70;1.90;;;24.00;99.90;;;;;;5090499;28;20036;-76
2023/07/15 07:26:24;;;;;;;4.80;1.95;;;24.20;99.90;;;;;;5090494;28;20530;-77
2023/07/15 07:28:50;;;;;;;4.75;2.38;;;24.30;99.90;;;;;;5086260;28;20079;-77
2023/07/15 07:31:17;;;;;;;4.85;2.00;;;24.40;99.90;;;;;;5090243;28;20127;-78
2023/07/15 07:33:44;;;;;;;4.07;2.40;;;24.20;99.90;;;;;;5083045;28;20111;-77
2023/07/15 07:36:10;;;;;;;3.10;1.92;;;24.10;99.90;;;;;;5073227;28;20040;-77
2023/07/15 07:38:35;;;;;;;3.38;1.90;;;24.20;99.90;;;;;;5083158;28;20677;-78
2023/07/15 07:41:09;;;;;;;3.47;1.88;;;24.50;99.90;;;;;;5090829;28;20033;-77
2023/07/15 07:43:36;;;;;;;4.38;1.92;;;24.60;99.90;;;;;;5073961;28;20039;-77
2023/07/15 07:46:04;;;;;;;3.83;1.90;;;24.50;99.90;;;;;;5090935;28;20085;-78
2023/07/15 07:48:29;;;;;;;5.88;1.85;;;24.50;99.90;;;;;;5090850;28;20090;-77
2023/07/15 07:50:56;;;;;;;6.60;2.13;;;24.40;99.90;;;;;;5090819;28;20033;-77
2023/07/15 07:53:22;;;;;;;4.65;2.00;;;24.40;99.90;;;;;;5090740;28;20039;-77
2023/07/15 07:55:47;;;;;;;3.88;2.25;;;24.30;99.90;;;;;;5091099;28;20055;-77
2023/07/15 07:58:13;;;;;;;4.45;2.17;;;24.40;99.90;;;;;;5090757;28;20036;-78
2023/07/15 08:00:38;;;;;;;5.45;2.10;;;24.40;99.90;;;;;;5073885;28;20028;-77
2023/07/15 08:03:04;;;;;;;3.85;2.17;;;24.50;99.90;;;;;;5089984;28;20029;-77
2023/07/15 08:05:29;;;;;;;4.03;2.25;;;24.60;99.90;;;;;;5090258;28;20051;-77
2023/07/15 08:07:55;;;;;;;3.80;2.10;;;24.70;99.90;;;;;;5090646;28;20096;-78
2023/07/15 08:10:20;;;;;;;4.07;2.05;;;24.80;99.90;;;;;;5054763;28;1036098;-78
2023/07/15 08:12:46;;;;;;;3.08;2.08;;;25.00;99.90;;;;;;5091584;28;20043;-78
2023/07/15 08:15:11;;;;;;;6.03;2.05;;;25.30;99.90;;;;;;5074347;28;20541;-77
2023/07/15 08:17:37;;;;;;;4.47;2.20;;;25.40;99.90;;;;;;5074756;28;20119;-77
2023/07/15 08:20:03;;;;;;;2.95;1.85;;;25.30;99.90;;;;;;5091400;28;20028;-77
2023/07/15 08:22:29;;;;;;;3.25;1.80;;;25.30;99.90;;;;;;5092635;28;20044;-78
2023/07/15 08:24:55;;;;;;;3.33;2.03;;;25.10;99.90;;;;;;5092266;28;20043;-78
2023/07/15 08:27:20;;;;;;;2.90;1.75;;;25.10;99.90;;;;;;5091442;28;20036;-78
2023/07/15 08:29:46;;;;;;;4.78;1.77;;;25.10;99.90;;;;;;5091172;28;20036;-77
2023/07/15 08:32:11;;;;;;;3.35;1.70;;;25.00;99.90;;;;;;5091394;28;20540;-77
2023/07/15 08:34:37;;;;;;;4.97;1.98;;;25.30;99.90;;;;;;5073927;28;20047;-78
2023/07/15 08:37:02;;;;;;;7.13;1.65;;;25.50;99.90;;;;;;5091138;28;20059;-77
2023/07/15 08:39:28;;;;;;;2.47;1.40;;;25.50;99.90;;;;;;5090620;28;20490;-77
2023/07/15 08:41:54;;;;;;;3.25;1.25;;;25.70;99.90;;;;;;5091770;28;20040;-78
2023/07/15 08:44:20;;;;;;;2.63;1.30;;;25.80;99.90;;;;;;5090606;28;20063;-78
2023/07/15 08:46:47;;;;;;;3.17;1.45;;;25.70;99.90;;;;;;5090859;28;20530;-78
2023/07/15 08:49:13;;;;;;;3.83;1.85;;;25.70;99.90;;;;;;5092092;28;20039;-78
2023/07/15 08:51:39;;;;;;;3.25;2.05;;;25.70;99.90;;;;;;5090605;28;20078;-77
2023/07/15 08:54:06;;;;;;;2.33;1.42;;;25.70;99.90;;;;;;5090888;28;20495;-79
2023/07/15 08:56:34;;;;;;;2.55;1.30;;;25.90;99.90;;;;;;5088179;28;20033;-78
2023/07/15 08:59:00;;;;;;;3.78;1.33;;;25.90;99.90;;;;;;5081828;28;20114;-77
2023/07/15 09:01:26;;;;;;;2.75;1.60;;;25.80;99.90;;;;;;5061589;28;20095;-78
2023/07/15 09:03:51;;;;;;;2.75;1.30;;;25.60;99.90;;;;;;5082345;28;20040;-78
2023/07/15 09:06:17;;;;;;;2.67;1.50;;;25.50;99.90;;;;;;5083968;28;20119;-79
2023/07/15 09:08:43;;;;;;;3.00;1.35;;;25.30;99.90;;;;;;5081013;28;20511;-78
2023/07/15 09:11:11;;;;;;;2.20;1.30;;;25.20;99.90;;;;;;5073859;28;20503;-79
2023/07/15 09:13:37;;;;;;;1.88;1.20;;;25.10;99.90;;;;;;5078806;28;20088;-78
2023/07/15 09:16:03;;;;;;;2.80;1.27;;;25.10;99.90;;;;;;5084562;28;20039;-78
2023/07/15 09:18:29;;;;;;;3.53;1.42;;;25.00;99.90;;;;;;5081487;28;20109;-77
2023/07/15 09:21:15;;;;;;;3.65;1.38;;;24.90;99.90;;;;;;5087894;28;20035;-77
2023/07/15 09:23:42;;;;;;;3.42;1.60;;;25.00;99.90;;;;;;5076283;28;20032;-77
2023/07/15 09:26:09;;;;;;;3.15;1.50;;;25.10;99.90;;;;;;5058761;28;20032;-77
2023/07/15 09:28:40;;;;;;;2.20;1.27;;;25.10;99.90;;;;;;5082639;28;20036;-78
2023/07/15 09:31:06;;;;;;;2.65;1.40;;;25.10;99.90;;;;;;5079440;28;20094;-78
2023/07/15 09:33:40;;;;;;;5.65;1.70;;;25.20;99.90;;;;;;5064498;28;20040;-77
2023/07/15 09:36:06;;;;;;;;;;;25.30;99.90;;;;;;5073278;28;20044;-76
2023/07/15 09:38:34;;;;;;;5.30;1.73;;;25.30;99.90;;;;;;5071340;28;19924;-77
2023/07/15 09:41:01;;;;;;;2.95;1.60;;;25.50;99.90;;;;;;5074419;28;20055;-78
2023/07/15 09:43:47;;;;;;;2.53;1.40;;;25.80;99.90;;;;;;5075593;28;20170;-77
2023/07/15 09:46:14;;;;;;;3.33;1.73;;;26.20;99.90;;;;;;5076437;28;20040;-78
2023/07/15 09:48:41;;;;;;;2.35;1.45;;;26.40;99.90;;;;;;5072643;28;20044;-77
2023/07/15 09:51:09;;;;;;;2.40;1.33;;;26.50;99.90;;;;;;5074918;28;20119;-78
2023/07/15 09:53:35;;;;;;;3.75;1.75;;;26.40;99.90;;;;;;5079407;28;20083;-76
2023/07/15 09:56:03;;;;;;;2.83;1.80;;;26.50;99.90;;;;;;5074243;28;20492;-77
2023/07/15 09:58:32;;;;;;;4.78;2.00;;;26.50;99.90;;;;;;5077367;28;20058;-78
2023/07/15 10:01:11;;;;;;;3.05;1.90;;;26.30;99.90;;;;;;5063084;28;20036;-76
2023/07/15 10:04:06;;;;;;;2.85;1.90;;;26.20;99.90;;;;;;5077024;28;20400;-78
2023/07/15 10:06:33;;;;;;;3.17;2.00;;;26.10;99.90;;;;;;5072710;28;20356;-78
2023/07/15 10:09:00;;;;;;;2.95;2.00;;;26.20;99.90;;;;;;5082469;28;20036;-78
2023/07/15 10:11:26;;;;;;;2.85;1.80;;;26.00;99.90;;;;;;5076605;28;20403;-77
2023/07/15 10:13:52;;;;;;;2.95;1.70;;;26.10;99.90;;;;;;5079332;28;20048;-77
2023/07/15 10:16:18;;;;;;;3.30;1.80;;;26.20;99.90;;;;;;5076255;28;20115;-79
2023/07/15 10:18:46;;;;;;;2.80;1.70;;;26.20;99.90;;;;;;5078689;28;20432;-78
2023/07/15 10:21:15;;;;;;;2.50;1.67;;;26.50;99.90;;;;;;5076783;28;20063;-79
2023/07/15 10:23:40;;;;;;;2.92;1.80;;;26.80;99.90;;;;;;5077050;28;20780;-78
2023/07/15 10:26:07;;;;;;;3.38;2.00;;;26.80;99.90;;;;;;5089380;28;20492;-79
2023/07/15 10:28:38;;;;;;;3.28;1.90;;;26.70;99.90;;;;;;5077095;28;20115;-79
2023/07/15 10:31:15;;;;;;;2.30;1.60;;;26.80;99.90;;;;;;5079989;28;20050;-78
2023/07/15 10:33:54;;;;;;;3.55;1.60;;;27.00;99.90;;;;;;5072915;28;20048;-78
2023/07/15 10:36:44;;;;;;;2.67;1.70;;;27.20;99.90;;;;;;5063791;28;20555;-78
2023/07/15 10:39:16;;;;;;;3.05;1.70;;;27.50;99.90;;;;;;5078266;28;20044;-77
2023/07/15 10:41:52;;;;;;;4.10;1.83;;;27.40;99.90;;;;;;5080026;28;20423;-79
2023/07/15 10:44:25;;;;;;;3.63;1.90;;;27.10;99.90;;;;;;5083935;28;20032;-78
2023/07/15 10:47:01;;;;;;;3.10;1.83;;;26.90;99.90;;;;;;5081034;28;20505;-78
2023/07/15 10:49:27;;;;;;;3.65;2.05;;;26.90;99.90;;;;;;5078054;28;20048;-79
2023/07/15 10:51:54;;;;;;;2.65;1.75;;;26.90;99.90;;;;;;5081353;28;20044;-79
2023/07/15 10:54:25;;;;;;;2.60;1.83;;;26.90;99.90;;;;;;5076021;28;20115;-77
2023/07/15 10:56:50;;;;;;;2.70;1.80;;;26.70;99.90;;;;;;5080613;28;20047;-78
2023/07/15 10:59:16;;;;;;;3.25;1.90;;;26.60;99.90;;;;;;5075422;28;20445;-78
2023/07/15 11:01:43;;;;;;;3.55;1.83;;;26.50;99.90;;;;;;5085590;28;20037;-78
2023/07/15 11:04:09;;;;;;;3.10;1.80;;;26.70;99.90;;;;;;5087393;28;20040;-79
2023/07/15 11:06:35;;;;;;;3.55;1.92;;;26.80;99.90;;;;;;5086874;28;20510;-79
2023/07/15 11:09:20;;;;;;;4.65;1.80;;;26.80;99.90;;;;;;5066722;28;20039;-78
2023/07/15 11:11:47;;;;;;;3.22;1.60;;;26.80;99.90;;;;;;5088393;28;20039;-79
2023/07/15 11:14:23;;;;;;;2.67;1.80;;;26.80;99.90;;;;;;5066844;28;20101;-78
2023/07/15 11:16:56;;;;;;;5.70;1.92;;;26.80;99.90;;;;;;5078138;28;20403;-76
2023/07/15 11:19:24;;;;;;;4.95;1.92;;;27.00;99.90;;;;;;5086688;28;20105;-79
2023/07/15 11:21:51;;;;;;;3.42;1.80;;;27.20;99.90;;;;;;5073748;28;21680;-78
2023/07/15 11:24:18;;;;;;;3.50;1.77;;;27.30;99.90;;;;;;5079562;28;20024;-78
2023/07/15 11:26:44;;;;;;;3.53;1.90;;;27.20;99.90;;;;;;5078971;28;20042;-78
2023/07/15 11:29:21;;;;;;;5.32;1.83;;;27.20;99.90;;;;;;5089642;28;20044;-78
2023/07/15 11:31:49;;;;;;;3.70;1.67;;;27.20;99.90;;;;;;5067494;28;20036;-79
2023/07/15 11:34:17;;;;;;;4.70;1.70;;;27.10;99.90;;;;;;5081238;28;20047;-78
2023/07/15 11:36:43;;;;;;;2.75;1.67;;;27.20;99.90;;;;;;5078780;28;20043;-78
2023/07/15 11:39:10;;;;;;;3.22;1.83;;;27.00;99.90;;;;;;5088580;28;20056;-78
2023/07/15 11:41:36;;;;;;;2.05;1.52;;;27.00;99.90;;;;;;5091377;28;20065;-79
2023/07/15 11:44:10;;;;;;;2.47;1.60;;;26.90;99.90;;;;;;5092403;28;20417;-78
2023/07/15 11:46:37;;;;;;;2.78;1.40;;;27.00;99.90;;;;;;5070927;28;20124;-77
2023/07/15 11:49:04;;;;;;;3.13;1.45;;;27.10;99.90;;;;;;5084079;28;20047;-78
2023/07/15 11:51:33;;;;;;;1.77;1.20;;;27.10;99.90;;;;;;5080866;28;20123;-76
2023/07/15 11:53:59;;;;;;;5.70;1.60;;;27.20;99.90;;;;;;5077067;28;20120;-79
2023/07/15 11:56:33;;;;;;;2.90;1.30;;;27.30;99.90;;;;;;5077535;28;20539;-78
2023/07/15 11:58:59;;;;;;;2.80;1.60;;;27.50;99.90;;;;;;5078281;28;20059;-79
2023/07/15 12:01:26;;;;;;;2.58;1.33;;;27.70;99.90;;;;;;5086872;28;20496;-80
2023/07/15 12:03:52;;;;;;;2.10;1.30;;;27.90;99.90;;;;;;5081036;28;20036;-78
2023/07/15 12:06:23;;;;;;;2.95;1.20;;;28.00;99.90;;;;;;5089770;28;20032;-79
2023/07/15 12:09:02;;;;;;;3.00;1.20;;;28.30;99.90;;;;;;5092964;28;20040;-78
2023/07/15 12:11:28;;;;;;;1.80;1.20;;;28.10;99.90;;;;;;5090089;28;20067;-78
2023/07/15 12:13:54;;;;;;;2.10;1.10;;;28.10;99.90;;;;;;5086174;28;20107;-78
2023/07/15 12:16:23;;;;;;;2.55;1.13;;;28.30;99.90;;;;;;5086406;28;20118;-79
2023/07/15 12:18:49;;;;;;;4.18;1.35;;;28.20;99.90;;;;;;5086192;28;20070;-79
2023/07/15 12:21:15;;;;;;;1.60;1.00;;;28.40;99.90;;;;;;5078959;28;20082;-78
2023/07/15 12:23:43;;;;;;;2.25;1.33;;;28.90;99.90;;;;;;5082030;28;20086;-77
2023/07/15 12:26:09;;;;;;;4.38;1.30;;;29.40;99.90;;;;;;5083489;28;20456;-79
2023/07/15 12:28:35;;;;;;;2.63;1.30;;;29.60;99.90;;;;;;5081430;28;20036;-77
2023/07/15 12:31:03;;;;;;;3.28;1.48;;;29.90;99.90;;;;;;5077661;28;20044;-78
2023/07/15 12:33:29;;;;;;;3.60;1.25;;;29.70;99.90;;;;;;5077280;28;20044;-78
2023/07/15 12:35:55;;;;;;;2.90;1.30;;;29.60;99.90;;;;;;5092264;28;20042;-78
2023/07/15 12:38:20;;;;;;;4.10;1.52;;;29.30;99.90;;;;;;5086916;28;20036;-78
2023/07/15 12:40:46;;;;;;;3.58;1.40;;;29.10;99.90;;;;;;5075445;28;20032;-78
2023/07/15 12:43:12;;;;;;;3.35;1.50;;;29.30;99.90;;;;;;5076749;28;20461;-79
2023/07/15 12:45:37;;;;;;;4.38;1.42;;;29.50;99.90;;;;;;5080633;28;20078;-78
2023/07/15 12:48:03;;;;;;;3.72;1.40;;;29.20;99.90;;;;;;5081031;28;20035;-78